createdAt,value
2018-05-06T00:02:14.052Z,100805.05
2018-05-06T00:04:41.437Z,100814.14
2018-05-06T00:07:08.823Z,100813.63
2018-05-06T00:09:36.204Z,100804.20
2018-05-06T00:12:03.575Z,100803.63
2018-05-06T00:14:30.959Z,100806.45
2018-05-06T00:16:58.339Z,100803.36
2018-05-06T00:19:25.734Z,100809.84
2018-05-06T00:21:53.150Z,100800.60
2018-05-06T00:24:20.535Z,100801.44
2018-05-06T00:26:47.924Z,100799.41
2018-05-06T00:29:15.311Z,100797.77
2018-05-06T00:31:42.702Z,100805.68
2018-05-06T00:34:10.080Z,100797.55
2018-05-06T00:36:37.459Z,100805.89
2018-05-06T00:39:04.855Z,100803.56
2018-05-06T00:41:32.236Z,100803.49
2018-05-06T00:43:59.636Z,100812.55
2018-05-06T00:46:27.112Z,100816.04
2018-05-06T00:48:54.420Z,100818.23
2018-05-06T00:51:21.791Z,100815.86
2018-05-06T00:53:49.192Z,100820.21
2018-05-06T00:56:16.573Z,100820.98
2018-05-06T00:58:43.955Z,100817.98
2018-05-06T01:01:11.340Z,100815.05
2018-05-06T01:03:39.029Z,100819.35
2018-05-06T01:06:06.664Z,100821.34
2018-05-06T01:08:34.324Z,100822.27
2018-05-06T01:11:01.939Z,100818.78
2018-05-06T01:13:29.461Z,100830.61
2018-05-06T01:15:56.852Z,100825.59
2018-05-06T01:18:24.274Z,100824.27
2018-05-06T01:20:51.646Z,100823.36
2018-05-06T01:23:19.029Z,100823.31
2018-05-06T01:25:46.404Z,100826.31
2018-05-06T01:28:13.806Z,100827.78
2018-05-06T01:30:41.195Z,100830.13
2018-05-06T01:33:08.760Z,100834.39
2018-05-06T01:35:36.150Z,100829.45
2018-05-06T01:38:03.540Z,100830.55
2018-05-06T01:40:30.927Z,100829.23
2018-05-06T01:42:58.327Z,100827.41
2018-05-06T01:48:01.703Z,100826.45
2018-05-06T01:50:29.096Z,100828.23
2018-05-06T01:52:56.492Z,100830.23
2018-05-06T01:55:23.874Z,100824.94
2018-05-06T01:57:51.274Z,100824.96
2018-05-06T02:00:18.652Z,100831.71
2018-05-06T02:02:46.034Z,100832.83
2018-05-06T02:05:13.460Z,100824.71
2018-05-06T02:07:40.843Z,100828.82
2018-05-06T02:10:08.241Z,100832.55
2018-05-06T02:12:35.731Z,100834.86
2018-05-06T02:15:03.134Z,100838.98
2018-05-06T02:17:30.530Z,100839.21
2018-05-06T02:19:57.907Z,100830.88
2018-05-06T02:22:25.283Z,100833.45
2018-05-06T02:24:52.683Z,100835.58
2018-05-06T02:27:20.066Z,100831.81
2018-05-06T02:29:47.460Z,100836.08
2018-05-06T02:32:14.850Z,100837.78
2018-05-06T02:34:42.238Z,100838.20
2018-05-06T02:37:09.619Z,100841.08
2018-05-06T02:39:37.012Z,100842.12
2018-05-06T02:42:04.395Z,100853.59
2018-05-06T02:44:31.811Z,100847.06
2018-05-06T02:46:59.196Z,100846.41
2018-05-06T02:49:26.595Z,100843.69
2018-05-06T02:51:53.979Z,100842.73
2018-05-06T02:54:21.368Z,100846.11
2018-05-06T02:56:48.764Z,100846.81
2018-05-06T02:59:16.147Z,100847.36
2018-05-06T03:01:43.529Z,100851.21
2018-05-06T03:04:10.918Z,100850.13
2018-05-06T03:06:38.304Z,100847.23
2018-05-06T03:09:05.700Z,100841.31
2018-05-06T03:11:33.074Z,100843.28
2018-05-06T03:14:00.471Z,100849.00
2018-05-06T03:16:27.865Z,100845.65
2018-05-06T03:18:55.251Z,100852.61
2018-05-06T03:21:22.656Z,100856.16
2018-05-06T03:23:50.047Z,100858.23
2018-05-06T03:26:17.440Z,100858.16
2018-05-06T03:28:44.838Z,100856.59
2018-05-06T03:31:12.223Z,100853.14
2018-05-06T03:33:39.625Z,100855.44
2018-05-06T03:36:07.019Z,100860.95
2018-05-06T03:38:34.408Z,100856.23
2018-05-06T03:41:01.791Z,100856.12
2018-05-06T03:43:29.196Z,100867.44
2018-05-06T03:45:56.575Z,100858.70
2018-05-06T03:48:23.989Z,100862.95
2018-05-06T03:50:51.371Z,100859.39
2018-05-06T03:53:18.748Z,100868.22
2018-05-06T03:55:47.687Z,100862.14
2018-05-06T03:58:26.870Z,100868.80
2018-05-06T04:00:54.263Z,100865.86
2018-05-06T04:03:21.643Z,100869.84
2018-05-06T04:05:49.057Z,100869.91
2018-05-06T04:08:16.488Z,100873.38
2018-05-06T04:10:43.991Z,100873.88
2018-05-06T04:13:11.350Z,100872.16
2018-05-06T04:15:38.759Z,100881.36
2018-05-06T04:18:06.146Z,100878.50
2018-05-06T04:20:33.539Z,100880.15
2018-05-06T04:23:00.923Z,100884.13
2018-05-06T04:25:28.326Z,100877.53
2018-05-06T04:27:55.703Z,100879.34
2018-05-06T04:30:23.099Z,100885.09
2018-05-06T04:32:50.487Z,100885.94
2018-05-06T04:35:17.885Z,100889.27
2018-05-06T04:37:45.357Z,100891.11
2018-05-06T04:40:12.816Z,100891.29
2018-05-06T04:42:40.123Z,100895.59
2018-05-06T04:45:07.615Z,100898.60
2018-05-06T04:50:13.194Z,100902.23
2018-05-06T04:52:40.551Z,100895.42
2018-05-06T04:55:07.944Z,100885.42
2018-05-06T04:57:35.323Z,100882.74
2018-05-06T05:00:02.719Z,100881.74
2018-05-06T05:02:30.092Z,100885.23
2018-05-06T05:04:57.483Z,100890.16
2018-05-06T05:07:24.854Z,100883.83
2018-05-06T05:09:53.019Z,100887.30
2018-05-06T05:12:20.448Z,100884.45
2018-05-06T05:14:47.842Z,100881.62
2018-05-06T05:17:15.232Z,100882.58
2018-05-06T05:19:42.627Z,100877.56
2018-05-06T05:22:10.021Z,100889.56
2018-05-06T05:24:37.410Z,100889.94
2018-05-06T05:27:05.210Z,100888.47
2018-05-06T05:29:32.607Z,100886.08
2018-05-06T05:31:59.989Z,100882.36
2018-05-06T05:34:27.470Z,100881.64
2018-05-06T05:36:54.767Z,100873.36
2018-05-06T05:39:22.146Z,100877.69
2018-05-06T05:41:49.523Z,100876.80
2018-05-06T05:44:16.911Z,100880.05
2018-05-06T05:46:44.457Z,100878.03
2018-05-06T05:49:11.847Z,100881.05
2018-05-06T05:51:39.242Z,100874.94
2018-05-06T05:54:06.644Z,100883.69
2018-05-06T05:56:34.036Z,100887.11
2018-05-06T05:59:01.527Z,100889.70
2018-05-06T06:01:28.961Z,100890.83
2018-05-06T06:03:56.312Z,100899.99
2018-05-06T06:06:23.711Z,100900.44
2018-05-06T06:08:51.603Z,100904.14
2018-05-06T06:11:18.988Z,100898.94
2018-05-06T06:13:47.055Z,100898.20
2018-05-06T06:16:14.431Z,100901.11
2018-05-06T06:18:41.817Z,100893.21
2018-05-06T06:21:09.279Z,100900.47
2018-05-06T06:23:36.655Z,100891.18
2018-05-06T06:26:04.071Z,100901.02
2018-05-06T06:28:31.461Z,100896.33
2018-05-06T06:30:58.847Z,100893.20
2018-05-06T06:33:26.249Z,100894.34
2018-05-06T06:35:53.728Z,100897.83
2018-05-06T06:38:21.287Z,100898.72
2018-05-06T06:40:48.700Z,100896.40
2018-05-06T06:43:16.222Z,100899.20
2018-05-06T06:45:43.616Z,100910.00
2018-05-06T06:48:11.003Z,100901.17
2018-05-06T06:50:38.396Z,100897.20
2018-05-06T06:53:05.775Z,100898.18
2018-05-06T06:55:33.162Z,100895.98
2018-05-06T06:58:00.550Z,100900.73
2018-05-06T07:00:27.956Z,100896.97
2018-05-06T07:02:55.339Z,100889.09
2018-05-06T07:05:22.717Z,100895.63
2018-05-06T07:07:50.103Z,100893.10
2018-05-06T07:10:19.716Z,100898.98
2018-05-06T07:12:47.305Z,100897.16
2018-05-06T07:15:14.712Z,100898.71
2018-05-06T07:17:42.100Z,100898.35
2018-05-06T07:20:09.490Z,100900.78
2018-05-06T07:22:36.887Z,100891.48
2018-05-06T07:25:04.291Z,100894.12
2018-05-06T07:27:31.715Z,100894.09
2018-05-06T07:29:59.109Z,100891.66
2018-05-06T07:32:26.492Z,100894.36
2018-05-06T07:34:53.884Z,100900.77
2018-05-06T07:37:21.298Z,100901.53
2018-05-06T07:39:48.683Z,100902.52
2018-05-06T07:42:16.072Z,100909.97
2018-05-06T07:44:43.451Z,100908.52
2018-05-06T07:47:10.847Z,100906.48
2018-05-06T07:49:38.231Z,100914.41
2018-05-06T07:52:05.652Z,100910.55
2018-05-06T07:54:33.027Z,100901.37
2018-05-06T07:57:00.443Z,100907.52
2018-05-06T07:59:27.827Z,100912.09
2018-05-06T08:01:55.231Z,100909.16
2018-05-06T08:04:22.651Z,100910.89
2018-05-06T08:06:50.008Z,100905.77
2018-05-06T08:09:17.723Z,100910.27
2018-05-06T08:11:45.165Z,100907.41
2018-05-06T08:14:12.548Z,100898.95
2018-05-06T08:16:39.996Z,100903.62
2018-05-06T08:19:07.390Z,100899.58
2018-05-06T08:21:34.781Z,100904.82
2018-05-06T08:24:02.157Z,100896.31
2018-05-06T08:26:29.552Z,100890.97
2018-05-06T08:28:56.945Z,100888.52
2018-05-06T08:31:24.334Z,100887.27
2018-05-06T08:33:51.724Z,100888.69
2018-05-06T08:36:19.131Z,100881.40
2018-05-06T08:38:46.515Z,100876.86
2018-05-06T08:41:13.923Z,100871.35
2018-05-06T08:43:41.319Z,100871.81
2018-05-06T08:46:08.699Z,100874.07
2018-05-06T08:48:36.097Z,100872.38
2018-05-06T08:51:03.484Z,100861.75
2018-05-06T08:53:30.868Z,100865.69
2018-05-06T08:55:58.258Z,100867.17
2018-05-06T08:58:25.865Z,100862.94
2018-05-06T09:00:53.239Z,100859.87
2018-05-06T09:03:20.638Z,100861.82
2018-05-06T09:05:48.072Z,100853.81
2018-05-06T09:08:15.444Z,100851.41
2018-05-06T09:10:42.828Z,100856.11
2018-05-06T09:13:10.232Z,100855.33
2018-05-06T09:15:37.614Z,100850.78
2018-05-06T09:18:05.000Z,100837.09
2018-05-06T09:20:32.388Z,100846.59
2018-05-06T09:22:59.786Z,100838.61
2018-05-06T09:25:27.248Z,100842.14
2018-05-06T09:27:54.556Z,100842.19
2018-05-06T09:30:21.944Z,100841.38
2018-05-06T09:32:49.338Z,100841.08
2018-05-06T09:35:16.727Z,100833.30
2018-05-06T09:37:44.137Z,100841.30
2018-05-06T09:40:11.555Z,100841.66
2018-05-06T09:42:38.964Z,100838.73
2018-05-06T09:45:06.351Z,100837.96
2018-05-06T09:47:33.846Z,100838.79
2018-05-06T09:50:01.126Z,100842.92
2018-05-06T09:52:28.535Z,100834.75
2018-05-06T09:54:55.919Z,100830.30
2018-05-06T09:57:23.317Z,100832.45
2018-05-06T09:59:50.693Z,100823.44
2018-05-06T10:02:22.546Z,100827.20
2018-05-06T10:04:49.911Z,100831.49
2018-05-06T10:07:18.273Z,100834.10
2018-05-06T10:09:45.657Z,100831.08
2018-05-06T10:12:13.060Z,100821.20
2018-05-06T10:14:40.439Z,100825.07
2018-05-06T10:17:07.965Z,100819.93
2018-05-06T10:19:35.335Z,100815.64
2018-05-06T10:22:02.834Z,100813.89
2018-05-06T10:24:30.233Z,100810.94
2018-05-06T10:26:57.615Z,100807.52
2018-05-06T10:29:24.993Z,100799.37
2018-05-06T10:31:52.390Z,100806.75
2018-05-06T10:34:19.771Z,100800.28
2018-05-06T10:36:47.166Z,100799.05
2018-05-06T10:39:14.561Z,100794.74
2018-05-06T10:41:41.951Z,100796.52
2018-05-06T10:44:09.364Z,100795.26
2018-05-06T10:46:36.778Z,100794.47
2018-05-06T10:49:04.207Z,100790.61
2018-05-06T10:51:31.552Z,100788.00
2018-05-06T10:53:58.939Z,100785.04
2018-05-06T10:56:26.315Z,100780.70
2018-05-06T10:58:53.708Z,100779.45
2018-05-06T11:01:21.080Z,100776.93
2018-05-06T11:03:48.498Z,100773.85
2018-05-06T11:06:15.875Z,100771.30
2018-05-06T11:08:43.267Z,100766.97
2018-05-06T11:11:10.643Z,100760.08
2018-05-06T11:13:38.035Z,100760.94
2018-05-06T11:16:05.430Z,100754.95
2018-05-06T11:18:32.809Z,100758.44
2018-05-06T11:21:00.182Z,100749.35
2018-05-06T11:23:27.608Z,100747.20
2018-05-06T11:25:54.993Z,100744.16
2018-05-06T11:28:22.387Z,100745.42
2018-05-06T11:30:49.763Z,100744.53
2018-05-06T11:33:17.156Z,100740.16
2018-05-06T11:35:44.539Z,100726.21
2018-05-06T11:38:12.000Z,100723.95
2018-05-06T11:40:39.353Z,100720.79
2018-05-06T11:43:07.719Z,100718.83
2018-05-06T11:45:35.103Z,100711.63
2018-05-06T11:48:02.577Z,100717.00
2018-05-06T11:50:29.946Z,100707.39
2018-05-06T11:52:57.273Z,100712.05
2018-05-06T11:55:24.876Z,100704.91
2018-05-06T11:57:52.259Z,100696.05
2018-05-06T12:00:19.705Z,100693.21
2018-05-06T12:02:47.165Z,100689.44
2018-05-06T12:05:14.548Z,100687.38
2018-05-06T12:07:41.925Z,100686.17
2018-05-06T12:10:09.310Z,100685.28
2018-05-06T12:12:36.715Z,100672.30
2018-05-06T12:15:04.133Z,100675.76
2018-05-06T12:17:31.499Z,100670.50
2018-05-06T12:19:58.890Z,100668.55
2018-05-06T12:22:26.277Z,100654.93
2018-05-06T12:24:53.671Z,100656.28
2018-05-06T12:27:21.072Z,100652.38
2018-05-06T12:29:48.452Z,100647.74
2018-05-06T12:32:15.833Z,100641.56
2018-05-06T12:34:43.227Z,100635.92
2018-05-06T12:37:10.611Z,100632.27
2018-05-06T12:39:38.008Z,100629.78
2018-05-06T12:42:05.380Z,100629.97
2018-05-06T12:44:32.794Z,100624.56
2018-05-06T12:47:00.192Z,100628.46
2018-05-06T12:49:27.599Z,100626.82
2018-05-06T12:51:54.966Z,100620.91
2018-05-06T12:54:22.347Z,100613.98
2018-05-06T12:56:49.731Z,100614.20
2018-05-06T12:59:17.192Z,100619.82
2018-05-06T13:01:44.575Z,100615.20
2018-05-06T13:04:11.962Z,100608.16
2018-05-06T13:06:39.346Z,100595.42
2018-05-06T13:09:06.748Z,100593.75
2018-05-06T13:11:34.135Z,100589.63
2018-05-06T13:14:01.512Z,100590.33
2018-05-06T13:16:28.899Z,100583.48
2018-05-06T13:18:56.293Z,100581.97
2018-05-06T13:21:23.675Z,100583.05
2018-05-06T13:23:51.070Z,100577.94
2018-05-06T13:26:19.208Z,100571.34
2018-05-06T13:28:46.582Z,100574.55
2018-05-06T13:31:13.970Z,100571.83
2018-05-06T13:33:41.350Z,100562.46
2018-05-06T13:36:08.744Z,100559.90
2018-05-06T13:38:36.122Z,100566.11
2018-05-06T13:41:03.530Z,100563.05
2018-05-06T13:43:30.903Z,100562.98
2018-05-06T13:45:58.298Z,100551.61
2018-05-06T13:48:26.520Z,100543.98
2018-05-06T13:50:53.891Z,100555.34
2018-05-06T13:53:21.283Z,100545.52
2018-05-06T13:55:49.662Z,100547.23
2018-05-06T13:58:17.051Z,100539.98
2018-05-06T14:00:44.436Z,100530.05
2018-05-06T14:03:11.823Z,100537.33
2018-05-06T14:05:39.242Z,100530.06
2018-05-06T14:08:06.620Z,100524.42
2018-05-06T14:10:34.013Z,100523.41
2018-05-06T14:13:01.386Z,100520.88
2018-05-06T14:15:28.778Z,100524.44
2018-05-06T14:17:56.148Z,100527.17
2018-05-06T14:20:23.546Z,100509.59
2018-05-06T14:22:50.915Z,100511.87
2018-05-06T14:25:18.299Z,100512.07
2018-05-06T14:27:45.684Z,100504.39
2018-05-06T14:30:13.068Z,100499.92
2018-05-06T14:32:40.442Z,100511.59
2018-05-06T14:35:07.815Z,100503.00
2018-05-06T14:37:35.203Z,100510.35
2018-05-06T14:40:02.592Z,100503.36
2018-05-06T14:42:29.971Z,100493.55
2018-05-06T14:44:57.370Z,100500.27
2018-05-06T14:50:24.258Z,100494.80
2018-05-06T14:52:51.631Z,100496.68
2018-05-06T14:55:19.565Z,100489.08
2018-05-06T14:57:47.004Z,100494.99
2018-05-06T15:00:14.426Z,100491.09
2018-05-06T15:02:41.802Z,100478.39
2018-05-06T15:05:09.212Z,100479.80
2018-05-06T15:07:36.596Z,100480.05
2018-05-06T15:10:03.971Z,100482.96
2018-05-06T15:12:31.358Z,100487.59
2018-05-06T15:14:58.739Z,100483.23
2018-05-06T15:17:26.126Z,100482.76
2018-05-06T15:19:53.496Z,100476.94
2018-05-06T15:22:20.881Z,100472.75
2018-05-06T15:24:48.259Z,100471.89
2018-05-06T15:27:15.641Z,100472.87
2018-05-06T15:29:43.026Z,100473.00
2018-05-06T15:32:10.414Z,100472.58
2018-05-06T15:34:37.795Z,100469.83
2018-05-06T15:37:05.200Z,100468.44
2018-05-06T15:39:32.576Z,100470.56
2018-05-06T15:42:00.115Z,100475.09
2018-05-06T15:44:27.491Z,100474.37
2018-05-06T15:46:54.875Z,100473.48
2018-05-06T15:49:22.257Z,100465.98
2018-05-06T15:51:49.832Z,100465.08
2018-05-06T15:54:17.223Z,100469.45
2018-05-06T15:56:44.611Z,100466.62
2018-05-06T15:59:11.990Z,100461.67
2018-05-06T16:01:39.385Z,100465.11
2018-05-06T16:04:14.561Z,100460.89
2018-05-06T16:06:41.958Z,100451.43
2018-05-06T16:09:09.319Z,100456.39
2018-05-06T16:11:36.718Z,100451.06
2018-05-06T16:14:04.102Z,100451.92
2018-05-06T16:16:31.497Z,100447.16
2018-05-06T16:18:58.874Z,100454.53
2018-05-06T16:21:26.292Z,100461.38
2018-05-06T16:23:53.683Z,100450.92
2018-05-06T16:26:21.074Z,100452.94
2018-05-06T16:28:48.517Z,100456.48
2018-05-06T16:31:15.903Z,100460.02
2018-05-06T16:33:43.291Z,100453.95
2018-05-06T16:36:10.690Z,100461.61
2018-05-06T16:38:38.071Z,100460.89
2018-05-06T16:41:05.467Z,100464.16
2018-05-06T16:43:32.842Z,100462.89
2018-05-06T16:46:00.225Z,100465.79
2018-05-06T16:48:28.199Z,100463.18
2018-05-06T16:50:55.589Z,100461.78
2018-05-06T16:53:22.970Z,100461.08
2018-05-06T16:55:50.381Z,100459.44
2018-05-06T16:58:17.897Z,100472.16
2018-05-06T17:00:45.272Z,100464.55
2018-05-06T17:03:12.663Z,100464.70
2018-05-06T17:05:40.074Z,100466.33
2018-05-06T17:08:07.466Z,100464.66
2018-05-06T17:10:35.771Z,100465.42
2018-05-06T17:13:03.161Z,100469.59
2018-05-06T17:15:30.775Z,100462.84
2018-05-06T17:17:58.165Z,100463.55
2018-05-06T17:20:25.538Z,100468.09
2018-05-06T17:22:53.144Z,100462.84
2018-05-06T17:25:20.543Z,100464.66
2018-05-06T17:27:47.957Z,100470.02
2018-05-06T17:30:15.330Z,100475.34
2018-05-06T17:32:42.734Z,100471.80
2018-05-06T17:35:10.106Z,100466.80
2018-05-06T17:37:37.529Z,100470.45
2018-05-06T17:40:04.902Z,100474.25
2018-05-06T17:42:32.286Z,100474.33
2018-05-06T17:44:59.667Z,100470.36
2018-05-06T17:47:27.067Z,100470.14
2018-05-06T17:49:54.449Z,100476.94
2018-05-06T17:52:21.833Z,100474.37
2018-05-06T17:54:49.223Z,100484.70
2018-05-06T17:57:16.621Z,100484.52
2018-05-06T17:59:44.087Z,100484.03
2018-05-06T18:02:11.470Z,100490.91
2018-05-06T18:04:38.865Z,100490.11
2018-05-06T18:07:06.251Z,100491.19
2018-05-06T18:09:33.630Z,100489.13
2018-05-06T18:12:01.020Z,100486.03
2018-05-06T18:14:28.485Z,100490.69
2018-05-06T18:16:55.911Z,100483.64
2018-05-06T18:19:23.314Z,100490.06
2018-05-06T18:21:50.701Z,100494.69
2018-05-06T18:24:18.079Z,100492.87
2018-05-06T18:26:45.483Z,100496.38
2018-05-06T18:29:12.857Z,100499.15
2018-05-06T18:31:40.249Z,100495.81
2018-05-06T18:34:07.686Z,100498.17
2018-05-06T18:36:35.067Z,100498.48
2018-05-06T18:39:02.446Z,100502.57
2018-05-06T18:41:29.846Z,100505.83
2018-05-06T18:43:57.305Z,100513.27
2018-05-06T18:46:24.672Z,100513.58
2018-05-06T18:48:52.058Z,100511.44
2018-05-06T18:51:19.668Z,100512.96
2018-05-06T18:53:47.058Z,100513.45
2018-05-06T18:56:14.435Z,100521.02
2018-05-06T18:58:41.836Z,100518.53
2018-05-06T19:01:09.219Z,100523.11
2018-05-06T19:03:36.711Z,100526.20
2018-05-06T19:06:04.090Z,100532.61
2018-05-06T19:08:31.583Z,100534.03
2018-05-06T19:10:58.908Z,100535.73
2018-05-06T19:13:26.296Z,100538.43
2018-05-06T19:15:54.028Z,100537.23
2018-05-06T19:18:21.813Z,100542.15
2018-05-06T19:20:49.793Z,100538.01
2018-05-06T19:23:18.471Z,100541.58
2018-05-06T19:25:46.032Z,100540.84
2018-05-06T19:28:13.648Z,100541.63
2018-05-06T19:30:41.227Z,100551.25
2018-05-06T19:33:08.932Z,100552.81
2018-05-06T19:35:36.617Z,100554.11
2018-05-06T19:38:04.327Z,100556.70
2018-05-06T19:40:31.912Z,100551.69
2018-05-06T19:42:59.580Z,100555.11
2018-05-06T19:45:27.184Z,100552.58
2018-05-06T19:47:54.864Z,100552.99
2018-05-06T19:50:22.588Z,100555.63
2018-05-06T19:52:50.997Z,100548.69
2018-05-06T19:55:18.442Z,100552.22
2018-05-06T19:57:45.834Z,100551.00
2018-05-06T20:00:13.218Z,100557.05
2018-05-06T20:02:40.603Z,100557.02
2018-05-06T20:05:07.980Z,100558.77
2018-05-06T20:07:35.362Z,100559.29
2018-05-06T20:10:02.765Z,100563.24
2018-05-06T20:12:30.153Z,100567.18
2018-05-06T20:14:57.522Z,100568.87
2018-05-06T20:17:25.013Z,100561.99
2018-05-06T20:19:52.375Z,100576.34
2018-05-06T20:22:19.841Z,100574.20
2018-05-06T20:24:47.238Z,100576.34
2018-05-06T20:27:14.715Z,100579.82
2018-05-06T20:29:42.104Z,100587.16
2018-05-06T20:32:09.517Z,100582.86
2018-05-06T20:34:36.906Z,100587.20
2018-05-06T20:37:04.662Z,100587.66
2018-05-06T20:39:32.060Z,100584.61
2018-05-06T20:41:59.455Z,100591.95
2018-05-06T20:44:26.849Z,100591.16
2018-05-06T20:46:54.236Z,100597.23
2018-05-06T20:49:21.612Z,100596.33
2018-05-06T20:51:49.019Z,100598.03
2018-05-06T20:54:16.410Z,100596.75
2018-05-06T20:56:43.961Z,100595.03
2018-05-06T20:59:11.626Z,100596.73
2018-05-06T21:01:38.999Z,100599.80
2018-05-06T21:04:06.416Z,100596.77
2018-05-06T21:06:33.799Z,100599.37
2018-05-06T21:09:01.199Z,100604.55
2018-05-06T21:11:28.753Z,100601.11
2018-05-06T21:13:56.180Z,100607.16
2018-05-06T21:16:24.464Z,100607.14
2018-05-06T21:18:51.859Z,100606.27
2018-05-06T21:21:19.275Z,100605.43
2018-05-06T21:23:46.673Z,100604.56
2018-05-06T21:26:14.057Z,100604.14
2018-05-06T21:28:41.452Z,100603.27
2018-05-06T21:31:08.840Z,100600.23
2018-05-06T21:33:36.231Z,100595.45
2018-05-06T21:36:03.677Z,100600.20
2018-05-06T21:38:31.020Z,100601.08
2018-05-06T21:40:58.404Z,100605.84
2018-05-06T21:43:25.879Z,100601.53
2018-05-06T21:45:53.175Z,100599.76
2018-05-06T21:48:21.396Z,100605.86
2018-05-06T21:50:48.780Z,100599.77
2018-05-06T21:53:16.180Z,100606.70
2018-05-06T21:55:43.589Z,100604.94
2018-05-06T21:58:10.976Z,100609.98
2018-05-06T22:00:38.362Z,100608.66
2018-05-06T22:03:05.763Z,100610.06
2018-05-06T22:05:33.147Z,100610.73
2018-05-06T22:08:00.564Z,100613.37
2018-05-06T22:10:27.951Z,100616.34
2018-05-06T22:12:55.349Z,100618.91
2018-05-06T22:15:22.739Z,100622.96
2018-05-06T22:17:50.228Z,100620.42
2018-05-06T22:20:17.627Z,100622.11
2018-05-06T22:22:45.023Z,100616.30
2018-05-06T22:25:12.479Z,100613.18
2018-05-06T22:27:39.894Z,100615.56
2018-05-06T22:30:07.274Z,100617.81
2018-05-06T22:32:34.668Z,100616.48
2018-05-06T22:35:02.154Z,100609.25
2018-05-06T22:37:29.533Z,100614.70
2018-05-06T22:39:56.931Z,100615.58
2018-05-06T22:42:24.461Z,100611.42
2018-05-06T22:44:51.861Z,100607.50
2018-05-06T22:47:19.411Z,100604.00
2018-05-06T22:49:46.813Z,100605.22
2018-05-06T22:52:14.188Z,100600.27
2018-05-06T22:54:41.572Z,100599.02
2018-05-06T22:57:08.951Z,100599.09
2018-05-06T22:59:36.385Z,100593.67
2018-05-06T23:02:03.739Z,100607.34
2018-05-06T23:04:31.171Z,100600.70
2018-05-06T23:06:58.557Z,100602.03
2018-05-06T23:09:25.953Z,100597.66
2018-05-06T23:11:53.409Z,100598.83
2018-05-06T23:14:20.799Z,100600.98
2018-05-06T23:16:48.192Z,100599.57
2018-05-06T23:19:15.595Z,100597.84
2018-05-06T23:21:42.983Z,100604.60
2018-05-06T23:24:10.413Z,100602.10
2018-05-06T23:26:37.891Z,100595.64
2018-05-06T23:29:05.277Z,100594.54
2018-05-06T23:31:32.669Z,100592.98
2018-05-06T23:34:00.084Z,100591.94
2018-05-06T23:36:27.464Z,100595.40
2018-05-06T23:38:56.021Z,100594.85
2018-05-06T23:41:23.415Z,100594.10
2018-05-06T23:43:50.830Z,100590.59
2018-05-06T23:46:18.228Z,100591.44
2018-05-06T23:48:45.606Z,100592.58
2018-05-06T23:51:13.002Z,100590.15
2018-05-06T23:53:40.397Z,100589.69
2018-05-06T23:56:07.785Z,100583.02
2018-05-06T23:58:35.190Z,100586.55
